RJFS

Saga Airport

Saga, Japan
TAF RJFS 212306Z 2200/2306 03004KT 9999 FEW030 SCT040 BECMG 2201/2203 21005KT BECMG 2205/2207 27010KT BECMG 2212/2215 03004KT BECMG 2300/2303 24007KT
Issued Valid From Valid To
Jan-21 @ 23:06 UTC
(2 hours ago)
Jan-22 @ 00:00 UTC
(52 minutes ago)
Jan-23 @ 06:00 UTC
(-1 days ago)
Jan-22 @ 00:00 to Jan-22 @ 01:00
TAF RJFS 212306Z 2200/2306 03004KT 9999 FEW030 SCT040
Wind Visibility Clouds
30° at 4 knots 10,000+ meters
  • Few at 3,000' AGL
  • Scattered at 4,000' AGL
Becoming Jan-22 @ 01:00 to Jan-22 @ 05:00
BECMG 2201/2203 21005KT
Wind Visibility Clouds
210° at 5 knots 10,000+ meters
  • Few at 3,000' AGL
  • Scattered at 4,000' AGL
Becoming Jan-22 @ 05:00 to Jan-22 @ 12:00
BECMG 2205/2207 27010KT
Wind Visibility Clouds
270° at 10 knots 10,000+ meters
  • Few at 3,000' AGL
  • Scattered at 4,000' AGL
Becoming Jan-22 @ 12:00 to Jan-23 @ 00:00
BECMG 2212/2215 03004KT
Wind Visibility Clouds
30° at 4 knots 10,000+ meters
  • Few at 3,000' AGL
  • Scattered at 4,000' AGL
Becoming Jan-23 @ 00:00 to Jan-23 @ 06:00
BECMG 2300/2303 24007KT
Wind Visibility Clouds
240° at 7 knots 10,000+ meters
  • Few at 3,000' AGL
  • Scattered at 4,000' AGL
TAF RJFS 212306Z 2200/2306 03004KT 9999 FEW030 SCT040 BECMG 2201/2203 21005KT BECMG 2205/2207 27010KT BECMG 2212/2215 03004KT BECMG 2300/2303 24007KT
Issued Jan-21 @ 23:06 UTC
(2 hours ago)
Valid From Jan-22 @ 00:00 UTC
(52 minutes ago)
Valid To Jan-23 @ 06:00 UTC
(-1 days ago)
Jan-22 @ 00:00 - Jan-22 @ 01:00
Wind Visibility
30° at 4 knots 10,000+ meters
Clouds
  • Few at 3,000' AGL
  • Scattered at 4,000' AGL
Becoming Jan-22 @ 01:00 - Jan-22 @ 05:00
Wind Visibility
210° at 5 knots 10,000+ meters
Clouds
  • Few at 3,000' AGL
  • Scattered at 4,000' AGL
Becoming Jan-22 @ 05:00 - Jan-22 @ 12:00
Wind Visibility
270° at 10 knots 10,000+ meters
Clouds
  • Few at 3,000' AGL
  • Scattered at 4,000' AGL
Becoming Jan-22 @ 12:00 - Jan-23 @ 00:00
Wind Visibility
30° at 4 knots 10,000+ meters
Clouds
  • Few at 3,000' AGL
  • Scattered at 4,000' AGL
Becoming Jan-23 @ 00:00 - Jan-23 @ 06:00
Wind Visibility
240° at 7 knots 10,000+ meters
Clouds
  • Few at 3,000' AGL
  • Scattered at 4,000' AGL